Time;durP1;ratioP1;P1;durP2;ratioP2;P2;SDS_P1;SDS_P2;PMS_P1;PMS_P2;Temp;Humidity;BMP_temperature;BMP_pressure;BME280_temperature;BME280_humidity;BME280_pressure;Samples;Min_cycle;Max_cycle;Signal;HPM_P1;HPM_P2
2022/08/15 00:01:24;;;;;;;10.95;9.27;;;19.60;91.80;;;;;;5056673;28;20052;-36
2022/08/15 00:03:56;;;;;;;12.00;9.50;;;19.40;91.20;;;;;;5057047;28;20117;-36
2022/08/15 00:06:29;;;;;;;10.18;9.13;;;20.90;93.30;;;;;;5056783;28;20032;-36
2022/08/15 00:08:57;;;;;;;10.65;8.88;;;19.40;92.80;;;;;;5056193;28;20041;-36
2022/08/15 00:11:36;;;;;;;10.48;8.98;;;19.40;91.00;;;;;;5055831;28;20467;-36
2022/08/15 00:14:07;;;;;;;12.63;11.15;;;19.30;92.20;;;;;;5056347;28;20779;-36
2022/08/15 00:16:36;;;;;;;11.50;10.25;;;19.40;92.10;;;;;;5056044;28;20044;-36
2022/08/15 00:19:12;;;;;;;12.40;10.95;;;19.40;93.30;;;;;;5055180;28;20400;-36
2022/08/15 00:21:46;;;;;;;12.45;11.05;;;20.10;94.50;;;;;;5056427;28;20044;-36
2022/08/15 00:24:15;;;;;;;13.35;10.05;;;19.30;94.30;;;;;;5054994;28;20044;-36
2022/08/15 00:26:44;;;;;;;12.27;10.70;;;20.80;94.80;;;;;;5088646;28;20040;-36
2022/08/15 00:29:12;;;;;;;12.63;10.38;;;19.40;93.40;;;;;;5056007;28;20524;-36
2022/08/15 00:31:39;;;;;;;11.80;10.60;;;19.40;94.40;;;;;;5054468;28;20053;-35
2022/08/15 00:34:07;;;;;;;12.60;11.30;;;19.30;94.60;;;;;;5055504;28;20043;-36
2022/08/15 00:36:32;;;;;;;14.27;11.23;;;19.30;94.50;;;;;;5055648;28;20524;-36
2022/08/15 00:39:00;;;;;;;15.40;13.27;;;21.40;95.20;;;;;;5055534;28;20047;-36
2022/08/15 00:41:40;;;;;;;18.48;12.52;;;20.00;96.30;;;;;;5055465;28;20047;-36
2022/08/15 00:44:12;;;;;;;15.57;14.02;;;21.40;97.20;;;;;;5054916;28;20036;-37
2022/08/15 00:46:39;;;;;;;14.23;12.82;;;19.10;95.90;;;;;;5055114;28;20037;-36
2022/08/15 00:49:07;;;;;;;15.48;13.98;;;19.20;96.50;;;;;;5055342;28;20036;-36
2022/08/15 00:51:57;;;;;;;15.60;13.60;;;20.50;96.70;;;;;;5054000;28;20059;-36
2022/08/15 00:54:41;;;;;;;15.55;13.95;;;19.30;96.50;;;;;;5054979;28;20701;-36
2022/08/15 00:57:31;;;;;;;17.13;14.00;;;19.70;96.90;;;;;;5054479;28;20052;-36
2022/08/15 01:00:05;;;;;;;16.05;14.43;;;19.70;95.70;;;;;;5054320;28;20055;-39
2022/08/15 01:02:33;;;;;;;13.80;12.40;;;20.70;96.00;;;;;;5054667;28;20402;-36
2022/08/15 01:05:02;;;;;;;16.65;13.50;;;19.90;94.40;;;;;;5055467;28;20043;-36
2022/08/15 01:07:28;;;;;;;13.63;12.20;;;20.30;93.70;;;;;;5056698;28;20287;-36
2022/08/15 01:09:54;;;;;;;14.30;11.50;;;19.90;92.20;;;;;;5055569;28;20578;-36
2022/08/15 01:12:22;;;;;;;14.73;12.23;;;19.90;91.50;;;;;;5054804;28;20386;-36
2022/08/15 01:14:52;;;;;;;15.20;13.80;;;19.70;90.50;;;;;;5055723;28;20079;-36
2022/08/15 01:17:18;;;;;;;15.13;11.65;;;17.60;89.50;;;;;;5089302;28;20072;-36
2022/08/15 01:20:04;;;;;;;14.68;12.55;;;20.20;89.80;;;;;;5056252;28;20377;-36
2022/08/15 01:22:42;;;;;;;13.90;12.00;;;19.70;89.50;;;;;;5054255;28;20111;-36
2022/08/15 01:25:25;;;;;;;16.63;13.13;;;19.40;90.70;;;;;;5087038;28;20578;-36
2022/08/15 01:27:55;;;;;;;14.88;13.40;;;19.40;91.30;;;;;;5055146;28;20102;-36
2022/08/15 01:30:25;;;;;;;16.13;12.80;;;19.30;92.10;;;;;;5054490;28;20605;-36
2022/08/15 01:32:55;;;;;;;14.32;12.65;;;19.40;93.30;;;;;;5049519;28;20102;-36
2022/08/15 01:35:23;;;;;;;16.67;13.30;;;19.20;93.50;;;;;;5056800;28;20832;-36
2022/08/15 01:37:50;;;;;;;15.00;13.55;;;19.40;95.70;;;;;;5054912;28;20045;-36
2022/08/15 01:40:31;;;;;;;15.00;13.07;;;20.70;97.10;;;;;;5052682;28;20381;-36
2022/08/15 01:42:57;;;;;;;16.17;13.43;;;19.30;97.20;;;;;;5054410;28;20044;-36
2022/08/15 01:45:26;;;;;;;15.00;13.50;;;20.60;98.40;;;;;;5054634;28;20055;-36
2022/08/15 01:48:15;;;;;;;14.93;13.40;;;18.70;98.10;;;;;;5053423;28;20881;-36
2022/08/15 01:50:54;;;;;;;16.65;13.73;;;19.10;99.70;;;;;;5054527;28;20067;-36
2022/08/15 01:53:54;;;;;;;16.35;13.35;;;19.00;99.70;;;;;;5053015;28;20047;-36
2022/08/15 01:56:32;;;;;;;14.35;12.93;;;18.70;99.90;;;;;;5053813;28;20050;-36
2022/08/15 01:59:01;;;;;;;14.18;12.60;;;18.70;99.90;;;;;;5053887;28;20095;-36
2022/08/15 02:02:04;;;;;;;17.60;14.98;;;18.60;99.90;;;;;;5053879;28;20505;-36
2022/08/15 02:04:36;;;;;;;15.55;13.52;;;18.60;99.90;;;;;;5051243;28;20045;-36
2022/08/15 02:07:09;;;;;;;16.65;14.95;;;18.60;99.90;;;;;;5039797;28;20113;-36
2022/08/15 02:09:35;;;;;;;14.30;12.80;;;18.70;99.90;;;;;;5054063;28;20070;-36
2022/08/15 02:12:03;;;;;;;15.30;12.88;;;19.30;99.90;;;;;;5054329;28;20407;-36
2022/08/15 02:14:33;;;;;;;15.75;13.45;;;18.30;99.90;;;;;;5053502;28;20040;-36
2022/08/15 02:16:59;;;;;;;16.65;13.13;;;20.80;99.90;;;;;;5052933;28;20052;-36
2022/08/15 02:19:25;;;;;;;14.77;13.00;;;20.20;99.90;;;;;;5054614;28;20801;-36
2022/08/15 02:21:55;;;;;;;16.88;13.15;;;18.90;99.90;;;;;;5054871;28;20037;-36
2022/08/15 02:24:24;;;;;;;15.43;12.93;;;18.30;99.90;;;;;;5054212;28;20087;-36
2022/08/15 02:26:52;;;;;;;17.08;12.50;;;18.60;99.90;;;;;;5054489;28;20029;-36
2022/08/15 02:29:27;;;;;;;13.13;11.73;;;18.80;99.90;;;;;;5054970;28;20235;-36
2022/08/15 02:31:55;;;;;;;16.42;13.82;;;18.80;99.90;;;;;;5054746;28;20137;-36
2022/08/15 02:34:21;;;;;;;13.95;12.40;;;20.50;99.90;;;;;;5053354;28;20131;-36
2022/08/15 02:36:48;;;;;;;16.48;13.32;;;18.40;99.90;;;;;;5054674;28;20123;-36
2022/08/15 02:39:14;;;;;;;13.45;12.05;;;18.50;99.90;;;;;;5054878;28;20119;-36
2022/08/15 02:41:43;;;;;;;16.05;13.00;;;20.70;99.90;;;;;;5054264;28;20611;-36
2022/08/15 02:44:11;;;;;;;18.48;12.70;;;18.60;99.90;;;;;;5052780;28;20082;-36
2022/08/15 02:46:38;;;;;;;17.00;13.45;;;19.50;99.90;;;;;;5053597;28;20520;-36
2022/08/15 02:49:11;;;;;;;12.70;11.40;;;20.40;99.90;;;;;;5052894;28;20052;-36
2022/08/15 02:51:41;;;;;;;15.60;13.35;;;18.60;99.90;;;;;;5052377;28;20067;-36
2022/08/15 02:54:09;;;;;;;14.32;12.82;;;19.00;99.90;;;;;;5053717;28;20048;-36
2022/08/15 02:56:35;;;;;;;14.43;12.98;;;18.90;99.90;;;;;;5053520;28;20112;-36
2022/08/15 02:59:03;;;;;;;15.63;14.05;;;18.80;99.90;;;;;;5053300;28;20408;-36
2022/08/15 03:01:29;;;;;;;17.00;14.00;;;19.70;99.90;;;;;;5052308;28;20119;-36
2022/08/15 03:03:56;;;;;;;18.25;15.18;;;18.90;99.90;;;;;;5052032;28;20044;-36
2022/08/15 03:06:27;;;;;;;13.70;12.40;;;18.90;99.90;;;;;;5053563;28;20090;-36
2022/08/15 03:08:53;;;;;;;14.50;12.65;;;18.60;99.90;;;;;;5051507;28;20060;-36
2022/08/15 03:11:20;;;;;;;16.77;15.00;;;18.80;99.90;;;;;;5054042;28;20106;-36
2022/08/15 03:13:46;;;;;;;16.13;14.48;;;18.80;99.90;;;;;;5053354;28;20040;-36
2022/08/15 03:16:13;;;;;;;16.73;14.98;;;18.70;99.90;;;;;;5052318;28;20039;-36
2022/08/15 03:18:42;;;;;;;15.38;13.57;;;20.10;99.90;;;;;;5052224;28;20457;-36
2022/08/15 03:21:12;;;;;;;16.25;14.52;;;21.00;99.90;;;;;;5052344;28;20094;-36
2022/08/15 03:23:48;;;;;;;15.38;13.88;;;18.80;99.90;;;;;;5052425;28;20607;-36
2022/08/15 03:26:18;;;;;;;18.88;13.63;;;19.50;99.90;;;;;;5053091;28;20469;-36
2022/08/15 03:28:44;;;;;;;16.90;14.32;;;19.10;99.90;;;;;;5052692;28;20123;-36
2022/08/15 03:31:10;;;;;;;15.45;13.70;;;20.30;99.90;;;;;;5054127;28;20141;-36
2022/08/15 03:33:38;;;;;;;16.15;13.75;;;19.20;99.90;;;;;;5053935;28;20044;-36
2022/08/15 03:36:06;;;;;;;14.88;13.38;;;19.40;99.90;;;;;;5053378;28;20044;-37
2022/08/15 03:38:32;;;;;;;15.18;13.73;;;19.20;99.90;;;;;;5053267;28;20037;-36
2022/08/15 03:40:57;;;;;;;14.65;13.15;;;19.20;99.90;;;;;;5053169;28;20109;-36
2022/08/15 03:43:27;;;;;;;15.20;13.60;;;20.50;99.90;;;;;;5053252;28;20045;-36
2022/08/15 03:45:59;;;;;;;15.55;13.00;;;19.40;99.90;;;;;;5054352;28;20087;-36
2022/08/15 03:48:29;;;;;;;16.13;12.57;;;19.40;99.20;;;;;;5053415;28;20059;-36
2022/08/15 03:50:56;;;;;;;14.85;13.18;;;19.40;99.80;;;;;;5052566;28;20032;-36
2022/08/15 03:53:22;;;;;;;15.20;12.40;;;21.10;99.80;;;;;;5052325;28;20076;-36
2022/08/15 03:55:50;;;;;;;15.05;13.60;;;19.30;99.20;;;;;;5086393;28;20047;-36
2022/08/15 03:58:16;;;;;;;15.18;13.00;;;19.40;99.30;;;;;;5052178;28;20428;-36
2022/08/15 04:00:45;;;;;;;13.82;12.25;;;19.50;99.40;;;;;;5054291;28;20040;-36
2022/08/15 04:03:18;;;;;;;15.57;13.93;;;19.00;99.90;;;;;;5051940;28;20512;-36
2022/08/15 04:05:49;;;;;;;16.13;13.77;;;19.00;99.40;;;;;;5052510;28;20044;-36
2022/08/15 04:08:17;;;;;;;17.63;12.77;;;19.00;99.90;;;;;;5052776;28;20623;-36
2022/08/15 04:10:45;;;;;;;16.70;12.63;;;18.80;99.90;;;;;;5053052;28;20236;-36
2022/08/15 04:13:11;;;;;;;15.27;13.40;;;19.60;99.90;;;;;;5051297;28;20059;-37
2022/08/15 04:15:38;;;;;;;16.42;12.32;;;20.90;99.90;;;;;;5053456;28;20032;-36
2022/08/15 04:18:05;;;;;;;18.20;13.95;;;18.80;99.90;;;;;;5051294;28;20047;-36
2022/08/15 04:20:31;;;;;;;19.17;12.82;;;18.80;99.90;;;;;;5051104;28;20524;-36
2022/08/15 04:23:01;;;;;;;14.80;12.57;;;18.70;99.90;;;;;;5052776;28;20036;-36
2022/08/15 04:25:29;;;;;;;17.27;14.50;;;20.70;99.90;;;;;;5052057;28;20082;-37
2022/08/15 04:27:59;;;;;;;14.07;12.68;;;18.80;99.90;;;;;;5052312;28;20076;-36
2022/08/15 04:30:28;;;;;;;14.57;12.75;;;17.00;99.90;;;;;;5053024;28;20072;-36
2022/08/15 04:33:04;;;;;;;14.38;12.80;;;19.90;99.90;;;;;;5053281;28;20523;-36
2022/08/15 04:35:30;;;;;;;16.00;14.40;;;20.80;99.90;;;;;;5053237;28;20036;-36
2022/08/15 04:37:57;;;;;;;13.52;12.13;;;17.80;99.90;;;;;;5056674;28;20037;-36
2022/08/15 04:40:23;;;;;;;15.25;12.90;;;20.00;99.90;;;;;;5055784;28;21047;-36
2022/08/15 04:42:53;;;;;;;16.42;14.63;;;18.80;99.90;;;;;;5054689;28;20044;-35
2022/08/15 04:45:21;;;;;;;15.85;13.95;;;18.80;99.90;;;;;;5053950;28;20045;-36
2022/08/15 04:47:46;;;;;;;17.42;14.18;;;18.80;99.90;;;;;;5055622;28;20060;-36
2022/08/15 04:50:14;;;;;;;15.07;13.05;;;20.10;99.90;;;;;;5055261;28;20029;-36
2022/08/15 04:52:48;;;;;;;17.67;13.75;;;18.60;99.90;;;;;;5054759;28;20043;-36
2022/08/15 04:55:17;;;;;;;15.30;13.52;;;19.10;99.90;;;;;;5055779;28;20048;-36
2022/08/15 04:57:43;;;;;;;17.92;14.60;;;18.70;99.90;;;;;;5055876;28;20093;-36
2022/08/15 05:00:11;;;;;;;17.02;14.30;;;18.80;99.90;;;;;;5055968;28;20512;-36
2022/08/15 05:02:39;;;;;;;17.83;14.73;;;18.70;99.90;;;;;;5055302;28;20035;-36
2022/08/15 05:05:07;;;;;;;17.73;14.32;;;20.40;99.90;;;;;;5055583;28;20053;-36
2022/08/15 05:07:33;;;;;;;15.43;13.60;;;19.00;99.90;;;;;;5055718;28;20123;-36
2022/08/15 05:10:03;;;;;;;16.70;13.52;;;19.30;99.90;;;;;;5055895;28;20066;-36
2022/08/15 05:12:30;;;;;;;16.27;14.57;;;18.90;99.90;;;;;;5055685;28;20032;-36
2022/08/15 05:14:57;;;;;;;19.13;13.45;;;19.00;99.90;;;;;;5055069;28;20067;-36
2022/08/15 05:17:23;;;;;;;17.60;13.20;;;18.90;99.90;;;;;;5055859;28;20053;-36
2022/08/15 05:19:49;;;;;;;18.55;14.00;;;19.30;99.90;;;;;;5055308;28;22112;-36
2022/08/15 05:22:16;;;;;;;15.05;13.55;;;21.10;99.90;;;;;;5055189;28;20037;-36
2022/08/15 05:24:42;;;;;;;16.75;15.05;;;19.20;99.90;;;;;;5054689;28;20045;-36
2022/08/15 05:27:08;;;;;;;17.85;16.13;;;19.30;99.90;;;;;;5054250;28;20618;-36
2022/08/15 05:29:34;;;;;;;16.73;15.02;;;19.20;99.90;;;;;;5054171;28;20044;-36
2022/08/15 05:32:00;;;;;;;18.10;16.20;;;19.40;99.20;;;;;;5052171;28;20041;-36
2022/08/15 05:34:28;;;;;;;16.58;14.90;;;19.70;98.30;;;;;;5054149;28;20041;-36
2022/08/15 05:36:54;;;;;;;16.55;14.70;;;19.70;97.10;;;;;;5053281;28;20041;-37
2022/08/15 05:39:27;;;;;;;18.23;15.45;;;19.90;95.50;;;;;;5051837;28;20036;-36
2022/08/15 05:42:11;;;;;;;17.80;15.35;;;19.90;92.50;;;;;;5051904;28;20581;-36
2022/08/15 05:44:47;;;;;;;20.25;14.68;;;20.30;90.30;;;;;;5053987;28;20048;-36
2022/08/15 05:47:33;;;;;;;16.67;14.90;;;20.40;84.70;;;;;;5054139;28;20152;-36
2022/08/15 05:50:03;;;;;;;17.35;14.35;;;20.60;73.20;;;;;;5054408;28;20048;-37
2022/08/15 05:52:48;;;;;;;16.70;14.98;;;20.70;63.60;;;;;;5054680;28;20052;-36
2022/08/15 05:55:19;;;;;;;14.45;12.95;;;20.70;53.60;;;;;;5054250;28;20578;-37
2022/08/15 05:58:05;;;;;;;16.38;14.52;;;20.70;45.70;;;;;;5055549;28;20044;-37
2022/08/15 06:00:33;;;;;;;19.77;14.48;;;20.80;36.40;;;;;;5053751;28;20078;-36
2022/08/15 06:03:24;;;;;;;17.25;13.70;;;20.90;36.00;;;;;;5053873;28;20127;-37
2022/08/15 06:05:57;;;;;;;16.40;14.40;;;21.00;25.80;;;;;;5053780;28;20056;-37
2022/08/15 06:08:45;;;;;;;16.23;14.52;;;21.10;19.40;;;;;;5054112;28;20218;-37
2022/08/15 06:11:36;;;;;;;19.35;14.30;;;21.20;7.30;;;;;;5086399;28;20040;-37
2022/08/15 06:14:19;;;;;;;15.90;13.63;;;21.70;1.00;;;;;;5053753;28;20083;-37
2022/08/15 06:16:53;;;;;;;15.40;12.65;;;21.30;1.00;;;;;;5054183;28;20504;-37
2022/08/15 06:19:32;;;;;;;15.13;12.93;;;21.30;1.00;;;;;;5054241;28;20572;-37
2022/08/15 06:22:24;;;;;;;15.88;12.80;;;22.00;1.00;;;;;;5055566;28;20067;-37
2022/08/15 06:25:11;;;;;;;16.75;13.35;;;22.00;1.00;;;;;;5055836;28;20362;-38
2022/08/15 06:28:21;;;;;;;14.25;12.77;;;22.20;1.00;;;;;;5055033;28;20044;-37
2022/08/15 06:31:02;;;;;;;17.42;13.48;;;22.30;1.00;;;;;;5015515;28;20053;-38
2022/08/15 06:33:41;;;;;;;15.55;12.27;;;22.20;99.90;;;;;;5015608;28;20099;-37
2022/08/15 06:36:30;;;;;;;14.50;12.20;;;22.30;99.90;;;;;;5017214;28;20048;-37
2022/08/15 06:39:28;;;;;;;16.50;13.27;;;22.60;99.90;;;;;;5015878;28;20171;-37
2022/08/15 06:42:13;;;;;;;16.52;11.40;;;22.70;99.90;;;;;;5014831;28;20081;-37
2022/08/15 06:44:39;;;;;;;121.57;15.55;;;24.30;99.90;;;;;;5016155;28;20034;-38
2022/08/15 06:47:07;;;;;;;12.55;11.30;;;23.10;80.30;;;;;;5014821;28;20072;-38
2022/08/15 06:49:40;;;;;;;16.17;12.38;;;23.20;99.90;;;;;;5012885;28;20042;-37
2022/08/15 06:52:10;;;;;;;12.85;11.55;;;23.40;99.90;;;;;;5014332;28;20042;-38
2022/08/15 06:54:38;;;;;;;12.20;10.98;;;23.90;99.90;;;;;;5016084;28;20056;-38
2022/08/15 06:57:18;;;;;;;14.32;12.35;;;24.70;99.90;;;;;;5013200;28;20045;-38
2022/08/15 07:00:09;;;;;;;14.43;12.00;;;25.40;99.90;;;;;;4999407;28;20060;-38
2022/08/15 07:03:23;;;;;;;13.52;10.30;;;26.30;99.90;;;;;;5014860;28;20464;-39
2022/08/15 07:05:54;;;;;;;17.58;10.40;;;27.50;99.90;;;;;;5011099;28;20529;-39
2022/08/15 07:08:35;;;;;;;12.27;9.90;;;28.30;99.90;;;;;;5053697;28;20147;-39
2022/08/15 07:11:16;;;;;;;12.55;10.00;;;29.10;99.90;;;;;;5053118;28;20131;-39
2022/08/15 07:14:11;;;;;;;14.00;10.57;;;29.20;99.90;;;;;;5052740;28;20124;-39
2022/08/15 07:17:12;;;;;;;12.30;9.73;;;28.80;99.90;;;;;;5052577;28;20059;-38
2022/08/15 07:19:38;;;;;;;10.93;9.82;;;28.70;99.90;;;;;;5051919;28;20608;-39
2022/08/15 07:22:06;;;;;;;12.00;10.15;;;29.30;99.90;;;;;;5053854;28;20051;-39
2022/08/15 07:24:33;;;;;;;12.88;9.95;;;29.60;99.90;;;;;;5051339;28;20036;-39
2022/08/15 07:27:08;;;;;;;10.93;9.43;;;30.00;99.90;;;;;;5053291;28;20085;-39
2022/08/15 07:29:37;;;;;;;12.52;9.50;;;30.60;99.90;;;;;;5054525;28;20130;-39
2022/08/15 07:32:20;;;;;;;12.88;9.35;;;30.90;99.90;;;;;;5054536;28;20037;-39
2022/08/15 07:35:01;;;;;;;11.55;8.65;;;31.20;99.90;;;;;;5052696;28;20044;-39
2022/08/15 07:37:32;;;;;;;10.38;8.85;;;31.20;99.90;;;;;;5053808;28;20040;-39
2022/08/15 07:40:34;;;;;;;10.75;8.18;;;31.40;99.90;;;;;;5053492;28;20051;-39
2022/08/15 07:43:05;;;;;;;11.48;9.50;;;31.10;99.90;;;;;;5086016;28;20041;-39
2022/08/15 07:45:39;;;;;;;14.18;9.93;;;30.60;99.90;;;;;;5054818;28;20041;-40
2022/08/15 07:48:23;;;;;;;11.07;9.98;;;30.20;99.90;;;;;;5054100;28;20041;-38
2022/08/15 07:51:15;;;;;;;11.25;9.07;;;29.70;99.90;;;;;;5054294;28;20106;-39
2022/08/15 07:54:00;;;;;;;10.10;9.07;;;29.10;99.90;;;;;;5050845;28;20152;-39
2022/08/15 07:56:28;;;;;;;11.43;9.95;;;28.30;99.90;;;;;;5050680;28;20075;-38
2022/08/15 07:59:08;;;;;;;10.70;8.32;;;27.90;99.90;;;;;;5050087;28;20059;-38
2022/08/15 08:01:34;;;;;;;10.37;9.13;;;27.50;99.90;;;;;;5050187;28;20044;-38
2022/08/15 08:04:33;;;;;;;12.27;9.52;;;27.10;99.90;;;;;;5050177;28;20519;-38
2022/08/15 08:07:16;;;;;;;12.50;9.55;;;26.70;99.90;;;;;;4952970;28;20563;-38
2022/08/15 08:10:18;;;;;;;14.20;10.10;;;26.30;99.90;;;;;;4953031;28;20047;-38
2022/08/15 08:12:52;;;;;;;12.10;9.30;;;25.90;99.90;;;;;;4937995;28;20386;-38
2022/08/15 08:15:48;;;;;;;11.90;9.98;;;25.70;99.90;;;;;;4920930;28;20054;-38
2022/08/15 08:18:44;;;;;;;10.73;9.63;;;25.70;99.90;;;;;;4937034;28;20043;-38
2022/08/15 08:21:15;;;;;;;11.00;8.77;;;25.30;99.90;;;;;;4937787;28;20070;-38
2022/08/15 08:23:48;;;;;;;13.63;10.05;;;25.40;99.90;;;;;;4936576;28;20749;-38
2022/08/15 08:26:30;;;;;;;10.57;9.00;;;25.00;99.90;;;;;;4936514;28;20138;-38
2022/08/15 08:29:05;;;;;;;10.93;9.82;;;25.10;99.90;;;;;;4937763;28;20639;-38
2022/08/15 08:32:10;;;;;;;11.48;9.35;;;25.10;99.90;;;;;;4921206;28;20146;-38
2022/08/15 08:34:48;;;;;;;11.32;10.20;;;25.00;99.90;;;;;;4917792;29;20128;-39
2022/08/15 08:37:36;;;;;;;13.20;9.63;;;25.40;99.90;;;;;;4917745;29;20138;-38
2022/08/15 08:43:38;;;;;;;13.00;9.75;;;25.70;99.90;;;;;;4960376;28;20764;-38
2022/08/15 08:46:23;;;;;;;12.55;9.43;;;25.20;99.90;;;;;;4978911;28;20124;-39
2022/08/15 08:49:33;;;;;;;10.73;9.57;;;25.30;99.90;;;;;;5005339;28;20508;-40
2022/08/15 08:52:07;;;;;;;10.40;9.30;;;25.40;99.90;;;;;;5053441;28;20082;-39
2022/08/15 08:55:02;;;;;;;9.63;7.80;;;25.40;99.90;;;;;;5052346;28;20057;-39
2022/08/15 08:57:50;;;;;;;10.35;8.43;;;25.40;99.90;;;;;;5051865;28;20044;-39
2022/08/15 09:00:20;;;;;;;10.65;9.50;;;25.70;99.90;;;;;;5051226;28;20048;-39
2022/08/15 09:02:59;;;;;;;12.80;8.77;;;25.80;99.90;;;;;;5051905;28;20040;-39
2022/08/15 09:05:30;;;;;;;12.15;8.82;;;25.70;99.90;;;;;;5053333;28;20040;-40
2022/08/15 09:08:02;;;;;;;10.18;8.65;;;25.60;99.90;;;;;;5052821;28;20064;-39
2022/08/15 09:10:34;;;;;;;10.57;8.20;;;25.60;99.90;;;;;;5052106;28;20047;-39
2022/08/15 09:15:51;;;;;;;11.02;7.85;;;25.60;99.90;;;;;;5051803;28;20063;-39
2022/08/15 09:18:28;;;;;;;9.68;8.43;;;25.70;99.90;;;;;;5052520;28;20134;-39
2022/08/15 09:20:56;;;;;;;11.13;8.20;;;25.90;99.90;;;;;;5051193;28;20032;-39
2022/08/15 09:23:24;;;;;;;11.50;8.93;;;25.70;99.90;;;;;;5051832;28;20570;-41
2022/08/15 09:26:17;;;;;;;10.45;8.32;;;25.90;99.90;;;;;;5053261;28;20071;-41
2022/08/15 09:28:46;;;;;;;12.63;9.32;;;26.00;99.90;;;;;;5054304;28;20044;-40
2022/08/15 09:31:11;;;;;;;9.32;8.32;;;26.10;99.90;;;;;;5055310;28;20044;-41
2022/08/15 09:33:37;;;;;;;13.27;8.32;;;26.20;99.90;;;;;;5054584;28;20063;-41
2022/08/15 09:36:48;;;;;;;11.95;9.20;;;26.30;99.90;;;;;;5053982;28;20040;-41
2022/08/15 09:39:28;;;;;;;10.13;7.82;;;26.70;99.90;;;;;;5051658;28;20733;-40
2022/08/15 09:42:18;;;;;;;10.30;7.65;;;27.00;99.90;;;;;;5051429;28;20070;-40
2022/08/15 09:45:21;;;;;;;11.88;7.93;;;27.00;99.90;;;;;;5050469;28;20500;-42
2022/08/15 09:48:03;;;;;;;9.48;8.05;;;27.20;99.90;;;;;;5050443;28;20597;-40
2022/08/15 09:50:52;;;;;;;10.07;8.13;;;27.40;99.90;;;;;;5051203;28;20682;-39
2022/08/15 09:53:40;;;;;;;10.23;7.35;;;27.40;99.90;;;;;;4991232;28;20990;-39
2022/08/15 09:56:11;;;;;;;9.20;7.88;;;27.70;99.90;;;;;;4990912;28;20514;-39
2022/08/15 09:58:54;;;;;;;12.65;7.55;;;27.50;99.90;;;;;;4989764;28;20054;-40
2022/08/15 10:01:31;;;;;;;12.50;8.70;;;27.70;99.90;;;;;;4991801;28;20077;-39
2022/08/15 10:04:01;;;;;;;11.15;7.40;;;28.00;99.90;;;;;;4990803;28;20054;-39
2022/08/15 10:06:55;;;;;;;10.65;8.07;;;28.20;99.90;;;;;;4991011;28;20406;-40
2022/08/15 10:09:31;;;;;;;16.13;7.80;;;28.40;99.90;;;;;;4952630;28;20554;-39
2022/08/15 10:12:06;;;;;;;8.13;7.28;;;28.60;99.90;;;;;;4952450;28;20055;-39
2022/08/15 10:14:56;;;;;;;11.73;7.47;;;28.80;99.90;;;;;;4950666;28;20654;-39
2022/08/15 10:17:34;;;;;;;10.48;7.40;;;29.20;99.90;;;;;;4951290;28;20206;-39
2022/08/15 10:20:15;;;;;;;8.18;6.78;;;29.30;99.90;;;;;;4951441;28;20181;-40
2022/08/15 10:22:48;;;;;;;10.25;7.32;;;29.20;99.90;;;;;;4952735;28;20537;-40
2022/08/15 10:25:17;;;;;;;13.23;8.10;;;29.10;99.90;;;;;;4935042;28;20149;-39
2022/08/15 10:28:10;;;;;;;11.02;8.32;;;29.10;99.90;;;;;;4952053;28;20145;-39
2022/08/15 10:30:39;;;;;;;10.38;7.82;;;29.30;99.90;;;;;;4996511;28;20067;-39
2022/08/15 10:33:33;;;;;;;13.00;8.30;;;29.30;99.90;;;;;;5029392;28;20293;-40
2022/08/15 10:36:13;;;;;;;12.23;8.00;;;29.40;99.90;;;;;;5031470;28;20188;-40
2022/08/15 10:39:16;;;;;;;10.90;8.73;;;29.20;99.90;;;;;;5030101;28;20032;-42
2022/08/15 10:42:03;;;;;;;12.43;8.68;;;29.00;99.90;;;;;;5030641;28;20288;-40
2022/08/15 10:44:48;;;;;;;12.15;10.00;;;28.60;99.90;;;;;;5030216;28;20048;-39
2022/08/15 10:47:30;;;;;;;9.13;8.18;;;28.40;99.90;;;;;;5050011;28;20842;-39
2022/08/15 10:50:17;;;;;;;10.95;9.30;;;28.00;99.90;;;;;;5053309;28;20048;-39
2022/08/15 10:52:55;;;;;;;11.63;9.02;;;27.90;99.90;;;;;;5053460;28;20055;-39
2022/08/15 10:55:36;;;;;;;11.15;9.32;;;27.40;99.90;;;;;;5052156;28;20059;-40
2022/08/15 10:58:22;;;;;;;13.70;9.68;;;27.50;99.90;;;;;;5053951;28;20053;-39
2022/08/15 11:01:06;;;;;;;15.23;10.30;;;27.50;99.90;;;;;;5052570;28;20060;-39
2022/08/15 11:03:41;;;;;;;14.82;11.23;;;27.40;99.90;;;;;;5052148;28;20100;-39
2022/08/15 11:06:13;;;;;;;12.70;11.00;;;27.50;99.90;;;;;;5053277;28;20064;-38
2022/08/15 11:08:47;;;;;;;15.82;10.80;;;27.50;99.90;;;;;;5052711;28;20047;-39
2022/08/15 11:11:13;;;;;;;13.95;9.43;;;27.10;99.90;;;;;;5052758;28;20041;-40
2022/08/15 11:13:50;;;;;;;15.50;10.52;;;27.30;99.90;;;;;;5051461;28;20072;-39
2022/08/15 11:16:18;;;;;;;16.30;10.23;;;27.20;99.90;;;;;;5052270;28;21058;-39
2022/08/15 11:18:49;;;;;;;14.77;9.82;;;25.20;99.90;;;;;;5052247;28;20052;-40
2022/08/15 11:21:29;;;;;;;21.55;10.98;;;26.80;99.90;;;;;;5053213;28;20041;-39
2022/08/15 11:24:01;;;;;;;12.52;9.75;;;26.50;99.90;;;;;;5053164;28;20432;-40
2022/08/15 11:26:30;;;;;;;14.23;10.35;;;26.60;99.90;;;;;;5051536;28;20036;-40
2022/08/15 11:29:14;;;;;;;11.48;10.25;;;26.40;99.90;;;;;;5052811;28;20037;-40
2022/08/15 11:31:50;;;;;;;14.43;10.68;;;26.20;99.90;;;;;;5053351;28;20055;-37
2022/08/15 11:34:29;;;;;;;19.65;11.18;;;26.30;99.90;;;;;;5052195;28;20072;-37
2022/08/15 11:37:01;;;;;;;15.93;12.20;;;25.70;99.90;;;;;;5054396;28;20044;-37
2022/08/15 11:39:30;;;;;;;13.90;11.63;;;25.60;99.90;;;;;;5054231;28;20047;-37
2022/08/15 11:42:03;;;;;;;17.13;12.20;;;25.30;99.90;;;;;;5053242;28;20040;-37
2022/08/15 11:44:45;;;;;;;14.70;11.90;;;25.20;99.90;;;;;;5055145;28;20044;-37
2022/08/15 11:47:16;;;;;;;12.00;10.80;;;24.90;99.90;;;;;;5057330;28;20093;-37
2022/08/15 11:49:49;;;;;;;14.27;11.57;;;24.70;99.90;;;;;;5057489;28;20068;-37
2022/08/15 11:52:25;;;;;;;14.80;11.55;;;24.40;99.90;;;;;;5057840;28;20041;-38
2022/08/15 11:55:13;;;;;;;18.55;12.82;;;24.80;99.90;;;;;;5055942;28;20047;-37
2022/08/15 11:57:46;;;;;;;14.70;11.43;;;24.30;99.90;;;;;;5056602;28;20485;-38
2022/08/15 12:00:23;;;;;;;13.85;12.45;;;24.10;99.90;;;;;;5056297;28;20524;-37
2022/08/15 12:02:51;;;;;;;16.02;13.35;;;24.10;99.90;;;;;;5089521;28;20405;-37
2022/08/15 12:05:31;;;;;;;16.30;14.07;;;24.00;99.90;;;;;;5057900;28;20056;-37
2022/08/15 12:08:00;;;;;;;22.35;14.25;;;23.90;99.90;;;;;;5056779;28;20073;-38
2022/08/15 12:10:33;;;;;;;14.27;12.80;;;24.00;99.90;;;;;;5057470;28;20044;-38
2022/08/15 12:13:01;;;;;;;18.10;13.85;;;23.90;99.90;;;;;;5089781;28;20484;-37
2022/08/15 12:15:33;;;;;;;16.33;13.45;;;24.10;99.90;;;;;;5055150;28;20037;-37
2022/08/15 12:18:05;;;;;;;;;;;23.90;99.90;;;;;;5057550;28;20260;-38
2022/08/15 12:21:04;;;;;;;26.25;16.02;;;24.20;99.90;;;;;;5054891;28;19924;-39
2022/08/15 12:23:36;;;;;;;19.08;14.85;;;23.90;99.90;;;;;;5055233;28;20063;-38
2022/08/15 12:26:07;;;;;;;20.67;14.85;;;24.50;99.90;;;;;;5054954;28;20700;-39
2022/08/15 12:28:35;;;;;;;17.90;14.88;;;23.70;99.90;;;;;;5055324;28;20162;-38
2022/08/15 12:31:04;;;;;;;20.25;17.35;;;23.60;99.90;;;;;;5056100;28;20497;-40
2022/08/15 12:33:31;;;;;;;21.35;19.15;;;23.70;99.90;;;;;;5055452;28;20516;-39
2022/08/15 12:36:02;;;;;;;20.83;18.67;;;23.80;7.00;;;;;;5055649;28;21221;-38
2022/08/15 12:38:31;;;;;;;18.50;16.70;;;23.40;22.50;;;;;;5056722;28;20039;-38
2022/08/15 12:40:57;;;;;;;20.48;18.42;;;23.70;31.90;;;;;;5054548;28;20405;-38
2022/08/15 12:43:23;;;;;;;22.98;19.27;;;23.60;48.30;;;;;;5056072;28;20532;-38
2022/08/15 12:45:49;;;;;;;22.13;17.38;;;23.90;79.30;;;;;;5055878;28;20036;-38
2022/08/15 12:48:23;;;;;;;20.50;18.40;;;23.90;83.50;;;;;;5054902;28;20653;-37
2022/08/15 12:50:51;;;;;;;18.85;16.65;;;23.90;91.80;;;;;;5087912;28;20110;-37
2022/08/15 12:53:17;;;;;;;16.70;14.93;;;23.90;86.40;;;;;;5055501;28;20048;-37
2022/08/15 12:55:47;;;;;;;18.85;15.70;;;24.00;70.60;;;;;;5055084;28;20086;-37
2022/08/15 12:58:15;;;;;;;15.38;13.82;;;24.50;72.60;;;;;;5055669;28;20134;-37
2022/08/15 13:00:41;;;;;;;16.30;11.70;;;24.70;71.20;;;;;;5054591;28;20056;-38
2022/08/15 13:03:23;;;;;;;8.63;7.60;;;25.80;53.70;;;;;;5054027;28;20056;-37
2022/08/15 13:05:58;;;;;;;7.95;6.45;;;25.70;99.90;;;;;;5055714;28;20405;-38
2022/08/15 13:08:24;;;;;;;6.57;5.60;;;25.80;99.90;;;;;;5056673;28;20036;-37
2022/08/15 13:10:50;;;;;;;10.48;6.05;;;26.00;99.90;;;;;;5055268;28;20044;-37
2022/08/15 13:13:16;;;;;;;14.38;7.00;;;25.90;99.90;;;;;;5057093;28;20078;-37
2022/08/15 13:15:44;;;;;;;8.32;6.43;;;25.90;99.90;;;;;;5056390;28;20033;-37